Time;durP1;ratioP1;P1;durP2;ratioP2;P2;SDS_P1;SDS_P2;PMS_P1;PMS_P2;Temp;Humidity;BMP_temperature;BMP_pressure;BME280_temperature;BME280_humidity;BME280_pressure;Samples;Min_cycle;Max_cycle;Signal;HPM_P1;HPM_P2
2021/06/09 00:00:01;;;;;;;;;;;;;;;;;;5019895;28;20018;-72
2021/06/09 00:02:27;;;;;;;;;;;;;;;;;;5019490;28;19932;-72
2021/06/09 00:04:53;;;;;;;;;;;;;;;;;;5019859;28;19936;-72
2021/06/09 00:07:20;;;;;;;;;;;;;;;;;;5011088;28;19936;-71
2021/06/09 00:09:46;;;;;;;;;;;;;;;;;;4990988;28;19922;-71
2021/06/09 00:12:12;;;;;;;;;;;;;;;;;;4991871;28;19921;-71
2021/06/09 00:44:49;;;;;;;;;;;;;;;;;;5012375;28;20399;-71
2021/06/09 01:03:44;;;;;;;;;;;;;;;;;;5020163;28;19967;-71
2021/06/09 01:06:09;;;;;;;;;;;;;;;;;;5031572;28;19917;-72
2021/06/09 01:08:38;;;;;;;;;;;;;;;;;;5022194;28;20278;-72
2021/06/09 01:11:04;;;;;;;;;;;;;;;;;;5014435;28;19954;-71
2021/06/09 01:13:31;;;;;;;;;;;;;;;;;;5014568;28;19936;-71
2021/06/09 01:15:57;;;;;;;;;;;;;;;;;;5014602;28;20419;-71
2021/06/09 01:18:23;;;;;;;;;;;;;;;;;;5020735;28;20038;-71
2021/06/09 01:20:48;;;;;;;;;;;;;;;;;;5033883;28;19926;-71
2021/06/09 01:23:14;;;;;;;;;;;;;;;;;;5034296;28;19965;-71
2021/06/09 01:25:40;;;;;;;;;;;;;;;;;;5015910;28;19933;-71
2021/06/09 01:28:07;;;;;;;;;;;;;;;;;;5018381;28;20087;-71
2021/06/09 01:30:33;;;;;;;;;;;;;;;;;;5016038;28;19925;-71
2021/06/09 01:32:59;;;;;;;;;;;;;;;;;;5032512;28;20688;-71
2021/06/09 01:35:25;;;;;;;;;;;;;;;;;;5034097;28;20014;-71
2021/06/09 01:37:50;;;;;;;;;;;;;;;;;;5031721;28;19956;-71
2021/06/09 01:40:16;;;;;;;;;;;;;;;;;;5014204;28;19961;-72
2021/06/09 01:42:42;;;;;;;;;;;;;;;;;;5014057;28;19980;-71
2021/06/09 01:45:15;;;;;;;;;;;;;;;;;;5014061;28;20371;-71
2021/06/09 01:47:40;;;;;;;;;;;;;;;;;;5014050;28;19965;-71
2021/06/09 01:50:06;;;;;;;;;;;;;;;;;;5033409;28;19922;-71
2021/06/09 01:52:32;;;;;;;;;;;;;;;;;;5033660;28;19979;-71
2021/06/09 01:54:58;;;;;;;;;;;;;;;;;;5033563;28;19927;-71
2021/06/09 01:57:24;;;;;;;;;;;;;;;;;;5015336;28;19968;-72
2021/06/09 01:59:50;;;;;;;;;;;;;;;;;;5015247;28;19928;-71
2021/06/09 02:02:16;;;;;;;;;;;;;;;;;;5013625;28;19936;-71
2021/06/09 02:04:42;;;;;;;;;;;;;;;;;;5013451;28;19954;-71
2021/06/09 02:07:08;;;;;;;;;;;;;;;;;;5013649;28;19954;-72
2021/06/09 02:09:33;;;;;;;;;;;;;;;;;;5028022;28;20026;-71
2021/06/09 02:12:00;;;;;;;;;;;;;;;;;;5035614;28;20427;-71
2021/06/09 02:14:25;;;;;;;;;;;;;;;;;;5035283;28;19940;-71
2021/06/09 02:16:51;;;;;;;;;;;;;;;;;;5012669;28;21375;-71
2021/06/09 02:19:17;;;;;;;;;;;;;;;;;;5013713;28;20015;-71
2021/06/09 02:21:43;;;;;;;;;;;;;;;;;;5027221;28;20443;-71
2021/06/09 02:24:25;;;;;;;;;;;;;;;;;;5033022;28;19930;-71
2021/06/09 02:35:18;;;;;;;;;;;;;;;;;;5011464;28;20010;-71
2021/06/09 02:37:44;;;;;;;;;;;;;;;;;;5032334;28;19959;-71
2021/06/09 02:40:19;;;;;;;;;;;;;;;;;;5016375;28;20465;-71
2021/06/09 02:45:42;;;;;;;;;;;;;;;;;;5012985;28;19915;-71
2021/06/09 02:48:08;;;;;;;;;;;;;;;;;;5029302;28;19932;-72
2021/06/09 02:50:33;;;;;;;;;;;;;;;;;;5012517;28;19905;-71
2021/06/09 02:53:02;;;;;;;;;;;;;;;;;;5021945;28;20039;-71
2021/06/09 02:55:28;;;;;;;;;;;;;;;;;;5012257;28;19920;-72
2021/06/09 02:57:54;;;;;;;;;;;;;;;;;;5012526;28;19954;-72
2021/06/09 03:00:20;;;;;;;;;;;;;;;;;;5012041;28;19912;-72
2021/06/09 03:02:46;;;;;;;;;;;;;;;;;;5018712;28;19920;-72
2021/06/09 03:05:12;;;;;;;;;;;;;;;;;;5031953;28;19904;-71
2021/06/09 03:07:51;;;;;;;;;;;;;;;;;;5032118;28;20373;-72
2021/06/09 03:10:19;;;;;;;;;;;;;;;;;;5031763;28;19959;-72
2021/06/09 03:12:48;;;;;;;;;;;;;;;;;;5020738;28;19910;-72
2021/06/09 03:15:14;;;;;;;;;;;;;;;;;;5012133;28;20004;-71
2021/06/09 03:17:43;;;;;;;;;;;;;;;;;;5010597;28;20465;-72
2021/06/09 03:20:09;;;;;;;;;;;;;;;;;;5011907;28;19910;-71
2021/06/09 03:22:38;;;;;;;;;;;;;;;;;;5020622;28;19931;-72
2021/06/09 03:25:05;;;;;;;;;;;;;;;;;;5014313;28;19904;-71
2021/06/09 03:27:41;;;;;;;;;;;;;;;;;;;;;
2021/06/09 03:30:07;;;;;;;;;;;;;;;;;;5031297;28;19916;-71
2021/06/09 03:32:32;;;;;;;;;;;;;;;;;;5023046;28;20452;-71
2021/06/09 03:34:58;;;;;;;;;;;;;;;;;;5011884;28;19998;-71
2021/06/09 03:37:24;;;;;;;;;;;;;;;;;;5011852;28;19956;-71
2021/06/09 03:39:59;;;;;;;;;;;;;;;;;;5010895;28;20452;-71
2021/06/09 03:42:34;;;;;;;;;;;;;;;;;;5012945;28;20003;-71
2021/06/09 03:45:05;;;;;;;;;;;;;;;;;;5011700;28;19917;-71
2021/06/09 03:47:31;;;;;;;;;;;;;;;;;;5011982;28;19967;-71
2021/06/09 03:49:56;;;;;;;;;;;;;;;;;;5011166;28;20390;-71
2021/06/09 03:52:22;;;;;;;;;;;;;;;;;;5017627;28;19956;-72
2021/06/09 03:54:57;;;;;;;;;;;;;;;;;;5031122;28;19906;-71
2021/06/09 03:57:24;;;;;;;;;;;;;;;;;;5031227;28;19954;-72
2021/06/09 03:59:49;;;;;;;;;;;;;;;;;;5030920;28;19912;-71
2021/06/09 04:02:15;;;;;;;;;;;;;;;;;;5026246;28;19909;-71
2021/06/09 04:04:41;;;;;;;;;;;;;;;;;;5011390;28;20003;-71
2021/06/09 04:07:07;;;;;;;;;;;;;;;;;;5011286;28;19906;-71
2021/06/09 04:09:33;;;;;;;;;;;;;;;;;;5028001;28;19917;-71
2021/06/09 04:12:00;;;;;;;;;;;;;;;;;;5025948;28;20234;-71
2021/06/09 04:14:26;;;;;;;;;;;;;;;;;;5011387;28;19905;-71
2021/06/09 04:16:51;;;;;;;;;;;;;;;;;;5011051;28;19909;-71
2021/06/09 04:19:17;;;;;;;;;;;;;;;;;;5011041;28;19984;-71
2021/06/09 04:21:43;;;;;;;;;;;;;;;;;;5012205;28;19906;-71
2021/06/09 04:24:09;;;;;;;;;;;;;;;;;;5011101;28;19916;-71
2021/06/09 04:26:35;;;;;;;;;;;;;;;;;;5010857;28;19983;-71
2021/06/09 04:29:01;;;;;;;;;;;;;;;;;;5010631;28;20365;-71
2021/06/09 04:31:27;;;;;;;;;;;;;;;;;;5011084;28;19972;-71
2021/06/09 04:33:52;;;;;;;;;;;;;;;;;;5012036;28;20009;-63
2021/06/09 04:36:18;;;;;;;;;;;;;;;;;;5017200;28;20483;-62
2021/06/09 04:38:44;;;;;;;;;;;;;;;;;;5029687;28;19916;-61
2021/06/09 04:41:10;;;;;;;;;;;;;;;;;;5073844;22;19920;-65
2021/06/09 04:43:40;;;;;;;;;;;;;;;;;;5074302;28;19908;-66
2021/06/09 04:46:06;;;;;;;;;;;;;;;;;;5075138;28;20391;-64
2021/06/09 04:48:32;;;;;;;;;;;;;;;;;;5064027;28;19952;-63
2021/06/09 04:50:58;;;;;;;;;;;;;;;;;;5054478;28;19908;-64
2021/06/09 04:53:24;;;;;;;;;;;;;;;;;;5055440;28;20194;-65
2021/06/09 04:55:50;;;;;;;;;;;;;;;;;;5050297;28;19941;-63
2021/06/09 04:58:16;;;;;;;;;;;;;;;;;;5063105;28;19916;-64
2021/06/09 05:00:42;;;;;;;;;;;;;;;;;;5055896;28;20278;-64
2021/06/09 05:03:08;;;;;;;;;;;;;;;;;;5057648;28;19904;-61
2021/06/09 05:05:33;;;;;;;;;;;;;;;;;;5052337;28;19954;-65
2021/06/09 05:07:59;;;;;;;;;;;;;;;;;;5063445;28;19915;-63
2021/06/09 05:10:25;;;;;;;;;;;;;;;;;;5061945;28;19938;-66
2021/06/09 05:12:51;;;;;;;;;;;;;;;;;;5061709;28;20378;-65
2021/06/09 05:15:17;;;;;;;;;;;;;;;;;;5062641;28;19923;-66
2021/06/09 05:17:43;;;;;;;;;;;;;;;;;;5055124;28;19919;-70
2021/06/09 05:20:09;;;;;;;;;;;;;;;;;;5054385;28;19959;-70
2021/06/09 05:22:34;;;;;;;;;;;;;;;;;;5054745;28;19995;-70
2021/06/09 05:25:00;;;;;;;;;;;;;;;;;;5053734;28;20353;-70
2021/06/09 05:27:26;;;;;;;;;;;;;;;;;;5046915;28;19919;-69
2021/06/09 05:29:52;;;;;;;;;;;;;;;;;;5050323;28;19950;-70
2021/06/09 05:32:18;;;;;;;;;;;;;;;;;;5050955;28;19925;-71
2021/06/09 05:34:44;;;;;;;;;;;;;;;;;;5058184;28;19925;-71
2021/06/09 05:37:10;;;;;;;;;;;;;;;;;;5063084;28;19940;-72
2021/06/09 05:39:38;;;;;;;;;;;;;;;;;;5055351;28;19966;-74
2021/06/09 05:42:04;;;;;;;;;;;;;;;;;;5053274;28;19930;-74
2021/06/09 05:44:30;;;;;;;;;;;;;;;;;;5057382;28;20569;-71
2021/06/09 05:46:56;;;;;;;;;;;;;;;;;;5049693;28;20060;-72
2021/06/09 05:49:22;;;;;;;;;;;;;;;;;;5051265;28;19927;-72
2021/06/09 05:51:48;;;;;;;;;;;;;;;;;;5050903;28;20012;-70
2021/06/09 05:54:13;;;;;;;;;;;;;;;;;;5051488;28;20545;-70
2021/06/09 05:56:39;;;;;;;;;;;;;;;;;;5054554;28;19950;-71
2021/06/09 05:59:05;;;;;;;;;;;;;;;;;;5051142;28;19925;-69
2021/06/09 06:01:31;;;;;;;;;;;;;;;;;;5051053;28;19933;-71
2021/06/09 06:03:57;;;;;;;;;;;;;;;;;;5050755;28;20464;-71
2021/06/09 06:06:23;;;;;;;;;;;;;;;;;;5051017;28;19972;-71
2021/06/09 06:08:49;;;;;;;;;;;;;;;;;;5055095;28;19926;-73
2021/06/09 06:11:14;;;;;;;;;;;;;;;;;;5052676;28;19985;-69
2021/06/09 06:13:40;;;;;;;;;;;;;;;;;;5052134;28;20554;-72
2021/06/09 06:16:06;;;;;;;;;;;;;;;;;;5052446;28;20390;-71
2021/06/09 06:18:32;;;;;;;;;;;;;;;;;;5052603;28;19942;-69
2021/06/09 06:20:58;;;;;;;;;;;;;;;;;;5051882;28;19995;-70
2021/06/09 06:23:24;;;;;;;;;;;;;;;;;;5052156;28;19925;-71
2021/06/09 06:25:50;;;;;;;;;;;;;;;;;;5050883;28;19932;-71
2021/06/09 06:28:15;;;;;;;;;;;;;;;;;;5051635;28;20378;-70
2021/06/09 06:30:41;;;;;;;;;;;;;;;;;;5052214;28;19998;-72
2021/06/09 06:33:07;;;;;;;;;;;;;;;;;;5052500;28;19940;-69
2021/06/09 06:35:33;;;;;;;;;;;;;;;;;;5054963;28;19959;-71
2021/06/09 06:37:59;;;;;;;;;;;;;;;;;;5051882;28;20379;-70
2021/06/09 06:40:27;;;;;;;;;;;;;;;;;;5050355;28;20032;-71
2021/06/09 06:43:02;;;;;;;;;;;;;;;;;;5033018;28;19904;-70
2021/06/09 06:45:28;;;;;;;;;;;;;;;;;;5061399;28;20319;-71
2021/06/09 06:47:54;;;;;;;;;;;;;;;;;;5060859;28;20015;-71
2021/06/09 06:50:20;;;;;;;;;;;;;;;;;;5050446;28;20276;-72
2021/06/09 06:52:45;;;;;;;;;;;;;;;;;;5055737;28;19919;-71
2021/06/09 06:55:11;;;;;;;;;;;;;;;;;;5049848;28;20598;-70
2021/06/09 06:57:37;;;;;;;;;;;;;;;;;;5050469;28;19920;-71
2021/06/09 07:00:04;;;;;;;;;;;;;;;;;;5051610;28;19995;-71
2021/06/09 07:02:30;;;;;;;;;;;;;;;;;;5070056;28;19909;-70
2021/06/09 07:04:56;;;;;;;;;;;;;;;;;;5074709;28;20446;-72
2021/06/09 07:07:22;;;;;;;;;;;;;;;;;;5059397;28;19909;-70
2021/06/09 07:09:48;;;;;;;;;;;;;;;;;;5057949;28;20670;-71
2021/06/09 07:12:14;;;;;;;;;;;;;;;;;;5057925;28;20264;-70
2021/06/09 07:14:40;;;;;;;;;;;;;;;;;;5058371;28;19912;-71
2021/06/09 07:17:06;;;;;;;;;;;;;;;;;;5058148;28;19947;-71
2021/06/09 07:19:31;;;;;;;;;;;;;;;;;;5076009;28;20334;-70
2021/06/09 07:21:57;;;;;;;;;;;;;;;;;;5069730;28;19939;-70
2021/06/09 07:24:23;;;;;;;;;;;;;;;;;;5071503;28;20033;-70
2021/06/09 07:26:49;;;;;;;;;;;;;;;;;;5075203;28;20359;-71
2021/06/09 07:29:15;;;;;;;;;;;;;;;;;;5068248;28;19919;-71
2021/06/09 07:31:41;;;;;;;;;;;;;;;;;;5074417;28;20457;-71
2021/06/09 07:34:07;;;;;;;;;;;;;;;;;;5059848;28;19947;-68
2021/06/09 07:36:33;;;;;;;;;;;;;;;;;;5059780;28;19925;-69
2021/06/09 07:38:59;;;;;;;;;;;;;;;;;;5057340;28;19924;-72
2021/06/09 07:41:24;;;;;;;;;;;;;;;;;;5072639;28;19954;-69
2021/06/09 07:43:50;;;;;;;;;;;;;;;;;;5069793;28;20012;-71
2021/06/09 07:46:16;;;;;;;;;;;;;;;;;;5065129;28;19912;-71
2021/06/09 07:48:42;;;;;;;;;;;;;;;;;;5067047;28;19959;-70
2021/06/09 07:51:08;;;;;;;;;;;;;;;;;;5070269;28;19940;-71
2021/06/09 07:53:34;;;;;;;;;;;;;;;;;;5072210;28;19925;-71
2021/06/09 07:55:59;;;;;;;;;;;;;;;;;;5068857;28;19933;-70
2021/06/09 07:58:29;;;;;;;;;;;;;;;;;;5075887;28;19972;-69
2021/06/09 08:00:55;;;;;;;;;;;;;;;;;;5075223;28;20325;-68
2021/06/09 08:03:23;;;;;;;;;;;;;;;;;;5072378;28;20019;-69
2021/06/09 08:05:57;;;;;;;;;;;;;;;;;;5075736;28;19958;-70
2021/06/09 08:08:22;;;;;;;;;;;;;;;;;;5061981;28;19960;-70
2021/06/09 08:10:48;;;;;;;;;;;;;;;;;;5058219;28;19950;-71
2021/06/09 08:13:14;;;;;;;;;;;;;;;;;;5065661;28;19925;-69
2021/06/09 08:15:40;;;;;;;;;;;;;;;;;;5076897;28;19919;-70
2021/06/09 08:18:06;;;;;;;;;;;;;;;;;;5063545;28;20411;-72
2021/06/09 08:20:32;;;;;;;;;;;;;;;;;;5060180;28;19947;-68
2021/06/09 08:22:58;;;;;;;;;;;;;;;;;;5057460;28;19955;-68
2021/06/09 08:25:24;;;;;;;;;;;;;;;;;;5057849;28;20018;-70
2021/06/09 08:27:50;;;;;;;;;;;;;;;;;;5056272;28;19929;-72
2021/06/09 08:30:16;;;;;;;;;;;;;;;;;;5056774;28;19965;-69
2021/06/09 08:32:42;;;;;;;;;;;;;;;;;;5055397;28;19975;-70
2021/06/09 08:35:08;;;;;;;;;;;;;;;;;;5058568;28;19922;-70
2021/06/09 08:37:34;;;;;;;;;;;;;;;;;;5067732;28;20312;-70
2021/06/09 08:39:59;;;;;;;;;;;;;;;;;;5062186;28;19951;-71
2021/06/09 08:42:25;;;;;;;;;;;;;;;;;;5073096;28;19926;-71
2021/06/09 08:44:52;;;;;;;;;;;;;;;;;;5064001;28;19931;-70
2021/06/09 08:47:17;;;;;;;;;;;;;;;;;;5055634;28;19922;-71
2021/06/09 08:49:44;;;;;;;;;;;;;;;;;;5056732;28;20004;-70
2021/06/09 08:52:10;;;;;;;;;;;;;;;;;;5056633;28;19935;-70
2021/06/09 08:54:36;;;;;;;;;;;;;;;;;;5072797;28;19925;-70
2021/06/09 08:57:01;;;;;;;;;;;;;;;;;;5060066;28;19959;-71
2021/06/09 08:59:27;;;;;;;;;;;;;;;;;;5057942;28;19929;-71
2021/06/09 09:01:53;;;;;;;;;;;;;;;;;;5057644;28;20012;-71
2021/06/09 09:04:19;;;;;;;;;;;;;;;;;;5060037;28;20344;-71
2021/06/09 09:06:45;;;;;;;;;;;;;;;;;;5059009;28;19951;-71
2021/06/09 09:09:11;;;;;;;;;;;;;;;;;;5065761;28;19925;-71
2021/06/09 09:11:37;;;;;;;;;;;;;;;;;;5071473;28;20404;-70
2021/06/09 09:14:03;;;;;;;;;;;;;;;;;;5073072;28;20020;-69
2021/06/09 09:16:28;;;;;;;;;;;;;;;;;;5061950;28;20375;-70
2021/06/09 09:19:02;;;;;;;;;;;;;;;;;;5058040;28;19921;-70
2021/06/09 09:21:28;;;;;;;;;;;;;;;;;;5056682;28;20438;-70
2021/06/09 09:23:54;;;;;;;;;;;;;;;;;;5058766;28;19923;-72
2021/06/09 09:26:19;;;;;;;;;;;;;;;;;;5065026;28;20540;-70
2021/06/09 09:28:45;;;;;;;;;;;;;;;;;;5061597;28;19932;-69
2021/06/09 09:31:11;;;;;;;;;;;;;;;;;;5061458;28;19967;-71
2021/06/09 09:33:37;;;;;;;;;;;;;;;;;;5056524;28;19923;-70
2021/06/09 09:36:12;;;;;;;;;;;;;;;;;;5059343;28;20035;-70
2021/06/09 09:38:37;;;;;;;;;;;;;;;;;;5059467;28;20032;-70
2021/06/09 09:41:03;;;;;;;;;;;;;;;;;;5059491;28;20409;-70
2021/06/09 09:43:29;;;;;;;;;;;;;;;;;;5059077;28;19921;-70
2021/06/09 09:45:55;;;;;;;;;;;;;;;;;;5051402;28;20410;-59
2021/06/09 09:48:21;;;;;;;;;;;;;;;;;;5056133;28;20275;-67
2021/06/09 09:50:47;;;;;;;;;;;;;;;;;;5059233;28;19951;-66
2021/06/09 09:53:21;;;;;;;;;;;;;;;;;;5058646;28;19931;-71
2021/06/09 09:55:47;;;;;;;;;;;;;;;;;;5062336;28;19932;-71
2021/06/09 09:58:13;;;;;;;;;;;;;;;;;;5058915;28;20359;-72
2021/06/09 10:00:38;;;;;;;;;;;;;;;;;;5059040;28;19958;-70
2021/06/09 10:03:04;;;;;;;;;;;;;;;;;;5060247;28;19938;-70
2021/06/09 10:05:30;;;;;;;;;;;;;;;;;;5060830;28;19941;-69
2021/06/09 10:07:56;;;;;;;;;;;;;;;;;;5075832;28;20427;-70
2021/06/09 10:10:22;;;;;;;;;;;;;;;;;;5078560;28;19950;-69
2021/06/09 10:12:48;;;;;;;;;;;;;;;;;;5066433;28;19905;-70
2021/06/09 10:15:14;;;;;;;;;;;;;;;;;;5059426;28;19909;-69
2021/06/09 10:17:40;;;;;;;;;;;;;;;;;;5058684;28;19916;-68
2021/06/09 10:20:06;;;;;;;;;;;;;;;;;;5069570;28;19957;-68
2021/06/09 10:22:34;;;;;;;;;;;;;;;;;;5058679;28;19909;-70
2021/06/09 10:25:02;;;;;;;1.40;1.20;;;;;;;;;;5053434;28;20497;-58
2021/06/09 10:27:37;;;;;;;1.30;1.20;;;;;;;;;;5048970;28;20633;-59
2021/06/09 10:30:04;;;;;;;2.55;1.13;;;;;;;;;;5038427;28;21018;-56
2021/06/09 10:32:31;;;;;;;;;;;;;;;;;;5052552;28;20640;-59
2021/06/09 10:34:57;;;;;;;;;;;;;;;;;;5060475;28;19935;-60
2021/06/09 10:37:22;;;;;;;;;;;;;;;;;;5033322;28;19957;-58
2021/06/09 10:39:51;;;;;;;;;;;;;;;;;;5040594;28;20038;-55
2021/06/09 10:42:17;;;;;;;;;;;;;;;;;;5048244;28;20021;-60
2021/06/09 10:44:45;;;;;;;;;;;;;;;;;;5061677;28;19971;-71
2021/06/09 10:47:10;;;;;;;;;;;;;;;;;;5064746;28;19931;-72
2021/06/09 10:49:38;;;;;;;;;;;;;;;;;;5067124;28;19942;-70
2021/06/09 10:52:04;;;;;;;;;;;;;;;;;;5055400;28;19923;-69
2021/06/09 10:54:30;;;;;;;;;;;;;;;;;;5057673;28;20358;-71
2021/06/09 10:56:56;;;;;;;;;;;;;;;;;;5056972;28;19953;-71
2021/06/09 10:59:22;;;;;;;;;;;;;;;;;;5057384;28;19921;-70
2021/06/09 11:01:48;;;;;;;;;;;;;;;;;;5059239;28;20308;-70
2021/06/09 11:04:13;;;;;;;;;;;;;;;;;;5070493;28;19930;-70
2021/06/09 11:06:39;;;;;;;;;;;;;;;;;;5056771;28;19927;-69
2021/06/09 11:09:05;;;;;;;;;;;;;;;;;;5056621;28;19929;-71
2021/06/09 11:11:31;;;;;;;;;;;;;;;;;;5055165;28;20353;-71
2021/06/09 11:13:57;;;;;;;;;;;;;;;;;;5077128;28;19956;-70
2021/06/09 11:16:23;;;;;;;;;;;;;;;;;;5063034;28;19948;-72
2021/06/09 11:18:50;;;;;;;;;;;;;;;;;;5057851;28;19930;-70
2021/06/09 11:21:16;;;;;;;;;;;;;;;;;;5077503;28;19944;-70
2021/06/09 11:23:42;;;;;;;;;;;;;;;;;;5077541;28;20020;-71
2021/06/09 11:26:08;;;;;;;;;;;;;;;;;;5061475;28;19934;-70
2021/06/09 11:28:34;;;;;;;;;;;;;;;;;;5075982;28;19992;-71
2021/06/09 11:31:00;;;;;;;;;;;;;;;;;;5076487;28;19940;-70
2021/06/09 11:33:26;;;;;;;;;;;;;;;;;;5077203;28;19930;-72
2021/06/09 11:35:52;;;;;;;;;;;;;;;;;;5064717;28;19972;-70
2021/06/09 11:38:18;;;;;;;;;;;;;;;;;;5057528;28;19978;-71
2021/06/09 11:40:44;;;;;;;;;;;;;;;;;;5075858;28;20002;-70
2021/06/09 11:43:10;;;;;;;;;;;;;;;;;;5078286;28;19926;-70
2021/06/09 11:45:38;;;;;;;;;;;;;;;;;;5069467;28;19980;-70
2021/06/09 11:48:03;;;;;;;;;;;;;;;;;;5057909;28;20468;-72
2021/06/09 11:50:30;;;;;;;;;;;;;;;;;;5056505;28;19973;-70
2021/06/09 11:52:56;;;;;;;;;;;;;;;;;;5056738;28;19954;-69
2021/06/09 11:55:23;;;;;;;;;;;;;;;;;;5065212;28;19935;-70
2021/06/09 11:57:49;;;;;;;;;;;;;;;;;;5056678;28;20453;-69
2021/06/09 12:00:15;;;;;;;;;;;;;;;;;;5056546;28;19938;-70
2021/06/09 12:02:41;;;;;;;;;;;;;;;;;;5057507;28;19952;-70
2021/06/09 12:05:07;;;;;;;;;;;;;;;;;;5063680;28;20385;-70
2021/06/09 12:07:36;;;;;;;;;;;;;;;;;;5076991;28;20333;-70
2021/06/09 12:10:02;;;;;;;;;;;;;;;;;;5076303;28;19949;-69
2021/06/09 12:12:28;;;;;;;;;;;;;;;;;;5072264;28;19936;-70
2021/06/09 12:14:54;;;;;;;;;;;;;;;;;;5074058;28;19930;-71
2021/06/09 12:17:20;;;;;;;;;;;;;;;;;;5070297;28;19942;-71
2021/06/09 12:19:45;;;;;;;;;;;;;;;;;;5041946;28;19943;-71
2021/06/09 12:22:11;;;;;;;;;;;;;;;;;;5067618;28;19928;-69
2021/06/09 12:24:37;;;;;;;;;;;;;;;;;;5069893;28;19940;-71
2021/06/09 12:27:03;;;;;;;;;;;;;;;;;;5070110;28;20003;-70
2021/06/09 12:29:29;;;;;;;;;;;;;;;;;;5063393;28;20517;-69
2021/06/09 12:31:55;;;;;;;;;;;;;;;;;;5065284;28;19933;-73
2021/06/09 12:34:21;;;;;;;;;;;;;;;;;;5065777;28;19929;-73
2021/06/09 12:36:47;;;;;;;;;;;;;;;;;;5057480;28;19944;-70
2021/06/09 12:39:12;;;;;;;;;;;;;;;;;;5055251;28;20463;-70
2021/06/09 12:41:38;;;;;;;;;;;;;;;;;;5038630;28;19999;-71
2021/06/09 12:44:04;;;;;;;;;;;;;;;;;;5057409;28;19934;-71
2021/06/09 12:46:30;;;;;;;;;;;;;;;;;;5051569;28;19974;-70
2021/06/09 12:48:56;;;;;;;;;;;;;;;;;;5036093;28;20014;-71
2021/06/09 12:51:22;;;;;;;;;;;;;;;;;;5054997;28;20010;-71
2021/06/09 12:53:47;;;;;;;;;;;;;;;;;;5049721;28;19935;-72
2021/06/09 12:56:13;;;;;;;;;;;;;;;;;;5057877;28;19937;-71
2021/06/09 12:58:39;;;;;;;;;;;;;;;;;;5056872;28;19948;-71
2021/06/09 13:01:05;;;;;;;;;;;;;;;;;;5056032;28;19946;-70
2021/06/09 13:03:33;;;;;;;;;;;;;;;;;;5057857;28;20016;-71
2021/06/09 13:05:59;;;;;;;;;;;;;;;;;;5060927;28;20513;-70
2021/06/09 13:08:25;;;;;;;;;;;;;;;;;;5060649;28;19923;-70
2021/06/09 13:10:51;;;;;;;;;;;;;;;;;;5059160;28;19949;-69
2021/06/09 13:13:17;;;;;;;;;;;;;;;;;;5060304;28;20284;-70
2021/06/09 13:15:43;;;;;;;;;;;;;;;;;;5061128;28;19933;-70
2021/06/09 13:18:09;;;;;;;;;;;;;;;;;;5062766;28;20495;-70
2021/06/09 13:20:35;;;;;;;;;;;;;;;;;;5060179;28;19949;-70
2021/06/09 13:23:03;;;;;;;;;;;;;;;;;;5059733;28;20450;-70
2021/06/09 13:25:29;;;;;;;;;;;;;;;;;;5063632;28;19929;-70
2021/06/09 13:27:55;;;;;;;;;;;;;;;;;;5058538;28;19927;-70
2021/06/09 13:30:21;;;;;;;;;;;;;;;;;;5058622;28;20016;-69
2021/06/09 13:32:50;;;;;;;;;;;;;;;;;;5058451;28;20025;-70
2021/06/09 13:35:17;;;;;;;;;;;;;;;;;;5061208;28;19972;-70
2021/06/09 13:37:43;;;;;;;;;;;;;;;;;;5060489;28;20459;-71
2021/06/09 13:40:08;;;;;;;;;;;;;;;;;;5059304;28;19954;-73
2021/06/09 13:42:35;;;;;;;;;;;;;;;;;;5051726;28;19961;-69
2021/06/09 13:45:01;;;;;;;;;;;;;;;;;;5040028;28;20418;-70
2021/06/09 13:47:27;;;;;;;;;;;;;;;;;;5073422;28;19930;-70
2021/06/09 13:49:53;;;;;;;;;;;;;;;;;;5058653;28;20364;-69
2021/06/09 13:52:19;;;;;;;;;;;;;;;;;;5058101;28;19937;-72
2021/06/09 13:54:45;;;;;;;;;;;;;;;;;;5061566;28;19967;-72
2021/06/09 13:57:10;;;;;;;;;;;;;;;;;;5059935;28;19956;-68
2021/06/09 13:59:36;;;;;;;;;;;;;;;;;;5056463;28;19945;-62
2021/06/09 14:02:02;;;;;;;;;;;;;;;;;;5059785;28;20023;-63
2021/06/09 14:04:28;;;;;;;;;;;;;;;;;;5061826;28;19916;-63
2021/06/09 14:06:54;;;;;;;;;;;;;;;;;;5059326;28;19909;-62
2021/06/09 14:09:20;;;;;;;;;;;;;;;;;;5058677;28;19913;-63
2021/06/09 14:11:46;;;;;;;;;;;;;;;;;;5058528;28;19924;-64
2021/06/09 14:14:14;;;;;;;;;;;;;;;;;;5058391;28;19913;-64
2021/06/09 14:16:41;;;;;;;;;;;;;;;;;;5058794;28;19916;-61
2021/06/09 14:19:06;;;;;;;;;;;;;;;;;;5058815;28;19909;-63
2021/06/09 14:21:32;;;;;;;;;;;;;;;;;;5058728;28;19913;-62
2021/06/09 14:23:58;;;;;;;;;;;;;;;;;;5054144;28;19927;-60
2021/06/09 14:26:24;;;;;;;2.27;1.57;;;;;;;;;;5052440;28;20393;-55
2021/06/09 14:28:50;;;;;;;10.70;3.80;;;;;;;;;;5053797;28;20462;-59
2021/06/09 14:31:20;;;;;;;3.72;1.90;;;;;;;;;;5052297;28;20413;-69
2021/06/09 14:36:33;;;;;;;3.53;1.00;;;;;;;;;;5050621;28;20457;-69
2021/06/09 14:39:01;;;;;;;1.60;1.10;;;;;;;;;;5052527;28;20430;-70
2021/06/09 14:41:37;;;;;;;2.17;1.90;;;;;;;;;;5032902;28;20442;-70
2021/06/09 14:44:12;;;;;;;2.50;1.37;;;;;;;;;;5049415;28;20407;-70
2021/06/09 14:46:39;;;;;;;2.20;1.43;;;;;;;;;;5046118;28;20426;-70
2021/06/09 14:49:05;;;;;;;3.13;1.80;;;;;;;;;;5072617;22;20496;-73
2021/06/09 14:51:31;;;;;;;1.97;1.30;;;;;;;;;;5069568;28;20776;-71
2021/06/09 14:54:00;;;;;;;1.80;1.60;;;;;;;;;;5071350;28;20386;-71
2021/06/09 14:56:26;;;;;;;5.33;2.67;;;;;;;;;;5065745;28;20394;-72
2021/06/09 14:58:53;;;;;;;2.23;1.97;;;;;;;;;;5051228;28;21044;-70
2021/06/09 15:01:25;;;;;;;1.50;1.20;;;;;;;;;;5040963;28;20404;-71
2021/06/09 15:03:51;;;;;;;1.90;1.53;;;;;;;;;;5045998;28;20486;-72
2021/06/09 15:06:17;;;;;;;2.20;1.60;;;;;;;;;;5051819;28;20418;-71
2021/06/09 15:08:44;;;;;;;2.83;1.73;;;;;;;;;;5041217;28;20431;-70
2021/06/09 15:11:10;;;;;;;2.80;1.40;;;;;;;;;;5034135;28;20885;-71
2021/06/09 15:13:36;;;;;;;2.30;1.50;;;;;;;;;;5032386;28;20483;-71
2021/06/09 15:16:02;;;;;;;2.23;2.03;;;;;;;;;;5032116;28;20881;-70
2021/06/09 15:18:28;;;;;;;2.07;1.00;;;;;;;;;;5045585;28;20464;-71
2021/06/09 15:20:54;;;;;;;1.53;1.23;;;;;;;;;;5041315;28;20400;-70
2021/06/09 15:23:20;;;;;;;2.23;1.17;;;;;;;;;;5039155;28;20196;-70
2021/06/09 15:25:46;;;;;;;1.93;1.80;;;;;;;;;;5039538;28;20450;-72
2021/06/09 15:28:12;;;;;;;1.77;1.50;;;;;;;;;;5041863;28;20472;-72
2021/06/09 15:30:39;;;;;;;2.10;1.40;;;;;;;;;;5022962;28;20837;-71
2021/06/09 15:33:06;;;;;;;2.33;1.80;;;;;;;;;;5037670;28;20419;-70
2021/06/09 15:35:32;;;;;;;1.53;1.30;;;;;;;;;;5036934;28;20414;-72
2021/06/09 15:37:58;;;;;;;2.03;1.40;;;;;;;;;;5041470;28;20810;-73
2021/06/09 15:40:24;;;;;;;3.30;1.30;;;;;;;;;;5040129;28;20405;-72
2021/06/09 15:42:50;;;;;;;3.50;1.90;;;;;;;;;;5041732;28;20464;-71
2021/06/09 15:45:16;;;;;;;1.30;1.20;;;;;;;;;;5044575;28;20889;-72
2021/06/09 15:47:42;;;;;;;2.63;1.23;;;;;;;;;;5039006;28;20408;-72
2021/06/09 15:50:08;;;;;;;1.77;1.50;;;;;;;;;;5039678;28;20887;-71
2021/06/09 15:52:37;;;;;;;6.70;2.10;;;;;;;;;;5040712;28;20414;-72
2021/06/09 15:55:03;;;;;;;10.40;1.90;;;;;;;;;;5041725;28;20403;-70
2021/06/09 15:57:29;;;;;;;1.00;0.87;;;;;;;;;;5042063;28;20466;-73
2021/06/09 15:59:55;;;;;;;14.60;1.50;;;;;;;;;;5037518;28;20423;-70
2021/06/09 16:02:23;;;;;;;2.10;1.73;;;;;;;;;;5031141;28;20172;-70
2021/06/09 16:04:49;;;;;;;1.50;1.20;;;;;;;;;;5031110;28;20165;-71
2021/06/09 16:07:15;;;;;;;1.60;1.50;;;;;;;;;;5030167;28;20941;-71
2021/06/09 16:09:41;;;;;;;2.87;2.30;;;;;;;;;;5030737;28;20463;-72
2021/06/09 16:12:08;;;;;;;2.07;1.73;;;;;;;;;;5030999;28;20458;-71
2021/06/09 16:14:34;;;;;;;5.50;3.03;;;;;;;;;;5030969;28;20398;-72
2021/06/09 16:17:00;;;;;;;1.30;1.03;;;;;;;;;;5040931;28;20938;-71
2021/06/09 16:19:27;;;;;;;1.60;1.50;;;;;;;;;;5038718;28;20434;-71
2021/06/09 16:21:53;;;;;;;2.63;1.60;;;;;;;;;;5041029;28;20899;-72
2021/06/09 16:24:19;;;;;;;2.80;1.60;;;;;;;;;;5040198;28;20410;-70
2021/06/09 16:26:45;;;;;;;1.60;1.37;;;;;;;;;;5039460;28;20395;-71
2021/06/09 16:29:11;;;;;;;1.90;1.73;;;;;;;;;;5040753;28;20422;-70
2021/06/09 16:31:36;;;;;;;;;;;;;;;;;;5040681;28;20224;-70
2021/06/09 16:34:02;;;;;;;;;;;;;;;;;;5051072;28;20407;-70
2021/06/09 16:36:28;;;;;;;;;;;;;;;;;;5050215;28;20341;-71
2021/06/09 16:38:54;;;;;;;;;;;;;;;;;;5051111;28;19919;-70
2021/06/09 16:41:20;;;;;;;;;;;;;;;;;;5050150;28;20357;-57
2021/06/09 16:43:46;;;;;;;;;;;;;;;;;;5031002;28;19924;-72
2021/06/09 16:46:12;;;;;;;;;;;;;;;;;;5022586;28;20495;-70
2021/06/09 16:48:38;;;;;;;;;;;;;;;;;;5024728;28;19996;-68
2021/06/09 16:51:04;;;;;;;;;;;;;;;;;;5030275;28;19999;-69
2021/06/09 16:53:29;;;;;;;;;;;;;;;;;;5030969;28;19912;-74
2021/06/09 17:01:18;;;;;;;;;;;;;;;;;;5035904;28;19951;-73
2021/06/09 17:03:44;;;;;;;;;;;;;;;;;;5049262;28;19944;-70
2021/06/09 17:06:10;;;;;;;;;;;;;;;;;;5041884;28;19909;-68
2021/06/09 17:08:35;;;;;;;;;;;;;;;;;;5033848;28;19959;-71
2021/06/09 17:11:01;;;;;;;;;;;;;;;;;;5030497;28;19948;-69
2021/06/09 17:13:27;;;;;;;;;;;;;;;;;;5030778;28;19991;-71
2021/06/09 17:15:53;;;;;;;;;;;;;;;;;;5034509;28;19912;-68
2021/06/09 17:18:19;;;;;;;;;;;;;;;;;;5035454;28;19925;-72
2021/06/09 17:20:45;;;;;;;;;;;;;;;;;;5020144;28;19920;-72
2021/06/09 17:23:11;;;;;;;;;;;;;;;;;;5023437;28;20388;-65
2021/06/09 17:25:37;;;;;;;;;;;;;;;;;;5022686;28;19909;-67
2021/06/09 17:28:03;;;;;;;;;;;;;;;;;;5026504;28;19914;-71